createdAt,value
2023-03-04T00:02:11.738Z,73.90
2023-03-04T00:04:39.555Z,72.65
2023-03-04T00:07:07.287Z,73.40
2023-03-04T00:09:35.345Z,72.55
2023-03-04T00:12:03.134Z,75.18
2023-03-04T00:14:32.321Z,74.55
2023-03-04T00:17:00.098Z,72.72
2023-03-04T00:19:27.904Z,72.50
2023-03-04T00:21:55.628Z,73.50
2023-03-04T00:24:24.956Z,73.10
2023-03-04T00:26:52.717Z,69.75
2023-03-04T00:29:21.889Z,68.45
2023-03-04T00:31:51.022Z,74.80
2023-03-04T00:34:18.765Z,70.22
2023-03-04T00:36:46.709Z,68.45
2023-03-04T00:39:14.648Z,70.82
2023-03-04T00:41:42.533Z,65.68
2023-03-04T00:44:10.231Z,66.35
2023-03-04T00:46:38.061Z,67.25
2023-03-04T00:49:07.244Z,61.08
2023-03-04T00:51:35.320Z,62.78
2023-03-04T00:54:03.136Z,64.43
2023-03-04T00:56:30.846Z,64.30
2023-03-04T00:58:58.589Z,61.60
2023-03-04T01:01:26.519Z,60.70
2023-03-04T01:03:54.399Z,60.72
2023-03-04T01:06:23.798Z,61.83
2023-03-04T01:08:51.739Z,64.20
2023-03-04T01:11:19.505Z,64.47
2023-03-04T01:13:48.527Z,66.57
2023-03-04T01:16:16.668Z,63.65
2023-03-04T01:18:44.814Z,64.70
2023-03-04T01:21:12.632Z,64.72
2023-03-04T01:23:41.745Z,73.15
2023-03-04T01:26:09.887Z,64.18
2023-03-04T01:28:37.592Z,74.38
2023-03-04T01:31:07.784Z,63.60
2023-03-04T01:33:35.667Z,66.22
2023-03-04T01:36:04.385Z,76.00
2023-03-04T01:38:32.259Z,71.85
2023-03-04T01:41:01.628Z,77.15
2023-03-04T01:43:30.887Z,71.43
2023-03-04T01:45:59.088Z,81.57
2023-03-04T01:48:28.061Z,69.60
2023-03-04T01:50:55.892Z,75.80
2023-03-04T01:53:24.822Z,78.20
2023-03-04T01:55:53.668Z,74.20
2023-03-04T01:58:22.761Z,78.88
2023-03-04T02:00:50.491Z,90.05
2023-03-04T02:03:20.591Z,74.43
2023-03-04T02:05:49.679Z,82.93
2023-03-04T02:08:19.681Z,73.30
2023-03-04T02:10:48.380Z,78.22
2023-03-04T02:13:16.902Z,73.47
2023-03-04T02:15:47.010Z,73.97
2023-03-04T02:18:16.809Z,78.82
2023-03-04T02:20:49.452Z,78.68
2023-03-04T02:23:18.982Z,76.65
2023-03-04T02:25:48.515Z,75.03
2023-03-04T02:28:18.034Z,74.82
2023-03-04T02:30:45.916Z,75.22
2023-03-04T02:33:16.769Z,73.93
2023-03-04T02:35:44.849Z,74.72
2023-03-04T02:38:13.284Z,71.72
2023-03-04T02:40:42.705Z,67.22
2023-03-04T02:43:11.098Z,67.78
2023-03-04T02:45:42.257Z,67.45
2023-03-04T02:48:11.176Z,64.93
2023-03-04T02:50:42.219Z,63.25
2023-03-04T02:53:09.970Z,64.40
2023-03-04T02:55:37.978Z,63.75
2023-03-04T02:58:07.033Z,66.15
2023-03-04T03:00:35.698Z,68.32
2023-03-04T03:03:05.183Z,70.70
2023-03-04T03:05:37.160Z,70.68
2023-03-04T03:08:06.472Z,65.25
2023-03-04T03:10:34.991Z,67.75
2023-03-04T03:13:03.991Z,69.95
2023-03-04T03:15:31.797Z,71.50
2023-03-04T03:17:59.667Z,69.40
2023-03-04T03:20:28.819Z,70.15
2023-03-04T03:22:56.548Z,73.60
2023-03-04T03:25:24.453Z,74.07
2023-03-04T03:27:54.610Z,69.88
2023-03-04T03:30:22.664Z,74.45
2023-03-04T03:32:50.433Z,72.22
2023-03-04T03:35:18.447Z,74.88
2023-03-04T03:37:49.000Z,72.13
2023-03-04T03:40:17.137Z,73.95
2023-03-04T03:42:44.852Z,74.97
2023-03-04T03:45:13.020Z,73.22
2023-03-04T03:47:40.832Z,70.88
2023-03-04T03:50:08.867Z,70.82
2023-03-04T03:52:36.708Z,72.82
2023-03-04T03:55:06.269Z,71.32
2023-03-04T03:57:34.150Z,70.15
2023-03-04T04:00:01.861Z,70.43
2023-03-04T04:02:40.333Z,68.57
2023-03-04T04:05:09.200Z,67.85
2023-03-04T04:07:36.892Z,68.75
2023-03-04T04:10:06.930Z,70.18
2023-03-04T04:12:34.783Z,68.80
2023-03-04T04:15:02.507Z,69.18
2023-03-04T04:17:30.340Z,69.88
2023-03-04T04:19:58.161Z,69.20
2023-03-04T04:22:25.850Z,67.97
2023-03-04T04:24:53.570Z,69.15
2023-03-04T04:27:22.716Z,67.55
2023-03-04T04:29:50.534Z,65.97
2023-03-04T04:32:18.303Z,68.05
2023-03-04T04:34:46.062Z,67.68
2023-03-04T04:37:13.796Z,69.30
2023-03-04T04:39:41.524Z,67.72
2023-03-04T04:42:10.932Z,67.50
2023-03-04T04:44:40.370Z,69.07
2023-03-04T04:47:08.161Z,70.35
2023-03-04T04:49:35.932Z,69.28
2023-03-04T04:52:03.692Z,68.65
2023-03-04T04:54:31.591Z,68.43
2023-03-04T04:56:59.324Z,67.93
2023-03-04T04:59:27.174Z,64.32
2023-03-04T05:01:56.229Z,65.22
2023-03-04T05:04:24.112Z,63.90
2023-03-04T05:06:52.217Z,61.83
2023-03-04T05:09:20.919Z,63.47
2023-03-04T05:11:48.681Z,60.03
2023-03-04T05:14:16.460Z,58.80
2023-03-04T05:16:44.189Z,62.10
2023-03-04T05:19:13.309Z,59.35
2023-03-04T05:21:41.170Z,61.30
2023-03-04T05:24:08.985Z,59.38
2023-03-04T05:26:36.685Z,58.97
2023-03-04T05:29:05.180Z,60.75
2023-03-04T05:31:33.053Z,62.15
2023-03-04T05:34:00.726Z,64.10
2023-03-04T05:36:29.780Z,60.88
2023-03-04T05:38:57.870Z,60.38
2023-03-04T05:41:25.903Z,60.13
2023-03-04T05:43:53.607Z,61.65
2023-03-04T05:46:25.367Z,60.55
2023-03-04T05:48:53.344Z,59.65
2023-03-04T05:51:21.635Z,62.38
2023-03-04T05:53:50.666Z,63.65
2023-03-04T05:56:19.842Z,58.75
2023-03-04T05:58:48.074Z,65.05
2023-03-04T06:01:16.329Z,60.38
2023-03-04T06:03:44.664Z,64.03
2023-03-04T06:06:12.549Z,61.83
2023-03-04T06:08:40.268Z,61.17
2023-03-04T06:11:09.451Z,61.70
2023-03-04T06:13:38.213Z,57.45
2023-03-04T06:16:06.523Z,59.03
2023-03-04T06:18:34.325Z,59.05
2023-03-04T06:21:03.124Z,57.00
2023-03-04T06:23:31.231Z,59.42
2023-03-04T06:25:59.600Z,56.78
2023-03-04T06:28:29.018Z,57.33
2023-03-04T06:30:57.268Z,59.47
2023-03-04T06:33:25.800Z,57.42
2023-03-04T06:35:55.101Z,60.33
2023-03-04T06:38:23.186Z,58.65
2023-03-04T06:40:50.920Z,59.90
2023-03-04T06:43:18.750Z,58.55
2023-03-04T06:45:48.181Z,61.30
2023-03-04T06:48:15.905Z,61.78
2023-03-04T06:50:43.586Z,63.70
2023-03-04T06:53:11.251Z,59.10
2023-03-04T06:55:38.938Z,57.03
2023-03-04T06:58:06.659Z,58.13
2023-03-04T07:00:34.427Z,55.30
2023-03-04T07:03:03.488Z,54.65
2023-03-04T07:05:31.214Z,55.03
2023-03-04T07:07:58.894Z,55.25
2023-03-04T07:10:26.584Z,55.80
2023-03-04T07:12:54.317Z,57.20
2023-03-04T07:15:22.059Z,57.08
2023-03-04T07:17:49.803Z,55.60
2023-03-04T07:20:18.933Z,54.15
2023-03-04T07:22:46.632Z,54.08
2023-03-04T07:25:14.397Z,53.17
2023-03-04T07:27:42.092Z,50.85
2023-03-04T07:30:11.083Z,55.22
2023-03-04T07:32:38.866Z,51.35
2023-03-04T07:35:07.376Z,52.25
2023-03-04T07:37:36.438Z,52.58
2023-03-04T07:40:04.508Z,54.17
2023-03-04T07:42:32.202Z,51.78
2023-03-04T07:45:06.379Z,53.75
2023-03-04T07:47:34.122Z,53.00
2023-03-04T07:50:01.816Z,52.88
2023-03-04T07:52:29.522Z,52.75
2023-03-04T07:54:58.673Z,53.80
2023-03-04T07:57:26.499Z,51.72
2023-03-04T07:59:54.281Z,56.08
2023-03-04T08:02:22.258Z,53.58
2023-03-04T08:04:50.313Z,52.65
2023-03-04T08:07:18.076Z,51.58
2023-03-04T08:09:45.778Z,52.55
2023-03-04T08:12:14.910Z,50.35
2023-03-04T08:14:42.722Z,50.88
2023-03-04T08:17:10.799Z,49.90
2023-03-04T08:19:38.973Z,49.38
2023-03-04T08:22:06.745Z,52.33
2023-03-04T08:24:34.681Z,51.42
2023-03-04T08:27:02.419Z,49.50
2023-03-04T08:29:31.740Z,50.92
2023-03-04T08:31:59.836Z,48.75
2023-03-04T08:34:28.857Z,49.83
2023-03-04T08:36:56.594Z,48.72
2023-03-04T08:39:24.660Z,49.30
2023-03-04T08:41:52.413Z,47.20
2023-03-04T08:44:20.253Z,47.10
2023-03-04T08:46:49.329Z,47.97
2023-03-04T08:49:18.430Z,49.17
2023-03-04T08:51:46.222Z,49.17
2023-03-04T08:54:14.003Z,48.55
2023-03-04T08:56:41.801Z,46.38
2023-03-04T08:59:09.589Z,48.28
2023-03-04T09:01:37.343Z,47.78
2023-03-04T09:04:06.697Z,45.17
2023-03-04T09:06:34.728Z,45.03
2023-03-04T09:09:02.946Z,46.70
2023-03-04T09:11:31.890Z,44.10
2023-03-04T09:14:00.658Z,43.80
2023-03-04T09:16:28.501Z,44.33
2023-03-04T09:18:56.358Z,44.10
2023-03-04T09:21:25.457Z,46.95
2023-03-04T09:23:53.227Z,46.25
2023-03-04T09:26:22.470Z,47.13
2023-03-04T09:28:54.683Z,45.53
2023-03-04T09:31:22.716Z,45.90
2023-03-04T09:33:50.619Z,40.47
2023-03-04T09:36:18.612Z,41.22
2023-03-04T09:38:47.681Z,41.90
2023-03-04T09:41:17.842Z,39.63
2023-03-04T09:43:46.594Z,35.00
2023-03-04T09:46:17.044Z,36.08
2023-03-04T09:48:46.187Z,36.63
2023-03-04T09:51:20.056Z,33.92
2023-03-04T09:53:52.628Z,35.03
2023-03-04T09:56:20.678Z,35.88
2023-03-04T09:58:54.633Z,36.38
2023-03-04T10:01:25.496Z,33.30
2023-03-04T10:03:56.030Z,33.28
2023-03-04T10:06:24.168Z,35.03
2023-03-04T10:08:57.293Z,35.15
2023-03-04T10:11:27.613Z,31.23
2023-03-04T10:13:58.742Z,31.20
2023-03-04T10:16:30.454Z,31.55
2023-03-04T10:18:59.855Z,32.22
2023-03-04T10:21:31.209Z,33.33
2023-03-04T10:24:01.339Z,32.85
2023-03-04T10:26:30.893Z,30.83
2023-03-04T10:28:58.931Z,30.88
2023-03-04T10:31:31.169Z,31.05
2023-03-04T10:33:58.982Z,31.92
2023-03-04T10:36:31.629Z,32.72
2023-03-04T10:39:01.843Z,29.92
2023-03-04T10:41:31.061Z,29.60
2023-03-04T10:44:02.456Z,29.80
2023-03-04T10:46:30.620Z,28.15
2023-03-04T10:48:58.843Z,28.13
2023-03-04T10:51:27.708Z,29.52
2023-03-04T10:53:57.998Z,30.17
2023-03-04T10:56:34.192Z,29.73
2023-03-04T10:59:16.874Z,29.17
2023-03-04T11:01:44.595Z,31.42
2023-03-04T11:04:18.048Z,30.55
2023-03-04T11:06:45.977Z,29.20
2023-03-04T11:09:22.289Z,29.25
2023-03-04T11:11:52.840Z,29.02
2023-03-04T11:14:23.400Z,30.23
2023-03-04T11:16:55.788Z,31.45
2023-03-04T11:19:25.179Z,32.55
2023-03-04T11:21:53.542Z,30.60
2023-03-04T11:24:29.256Z,31.45
2023-03-04T11:27:00.635Z,31.65
2023-03-04T11:29:31.649Z,31.17
2023-03-04T11:32:04.833Z,32.17
2023-03-04T11:34:38.439Z,31.92
2023-03-04T11:37:09.044Z,30.38
2023-03-04T11:39:38.226Z,30.90
2023-03-04T11:42:12.482Z,30.42
2023-03-04T11:44:41.527Z,30.73
2023-03-04T11:47:16.469Z,32.88
2023-03-04T11:49:56.091Z,30.83
2023-03-04T11:52:29.590Z,26.08
2023-03-04T11:55:04.976Z,27.13
2023-03-04T11:57:38.818Z,25.10
2023-03-04T12:00:13.729Z,26.20
2023-03-04T12:02:45.715Z,27.08
2023-03-04T12:05:18.656Z,27.67
2023-03-04T12:08:01.655Z,30.88
2023-03-04T12:10:31.560Z,26.95
2023-03-04T12:13:13.628Z,28.42
2023-03-04T12:15:45.324Z,29.52
2023-03-04T12:18:20.555Z,29.10
2023-03-04T12:21:01.068Z,29.02
2023-03-04T12:23:39.015Z,29.60
2023-03-04T12:26:09.089Z,28.08
2023-03-04T12:28:52.063Z,28.88
2023-03-04T12:31:37.049Z,29.67
2023-03-04T12:34:23.696Z,29.92
2023-03-04T12:36:55.966Z,30.77
2023-03-04T12:39:31.605Z,31.35
2023-03-04T12:42:07.067Z,30.52
2023-03-04T12:44:39.516Z,31.00
2023-03-04T12:47:14.434Z,32.58
2023-03-04T12:49:59.981Z,31.73
2023-03-04T12:52:33.156Z,30.73
2023-03-04T12:55:03.641Z,30.85
2023-03-04T12:57:33.358Z,31.10
2023-03-04T13:00:08.946Z,32.17
2023-03-04T13:02:43.010Z,30.55
2023-03-04T13:05:22.175Z,29.88
2023-03-04T13:07:56.216Z,28.23
2023-03-04T13:10:25.568Z,28.70
2023-03-04T13:12:54.689Z,29.38
2023-03-04T13:15:31.872Z,29.67
2023-03-04T13:18:00.480Z,28.23
2023-03-04T13:20:36.575Z,27.77
2023-03-04T13:23:05.462Z,31.50
2023-03-04T13:25:34.433Z,23.48
2023-03-04T13:28:22.969Z,20.70
2023-03-04T13:31:15.261Z,24.35
2023-03-04T13:33:49.899Z,20.92
2023-03-04T13:36:53.189Z,17.88
2023-03-04T13:39:31.756Z,19.00
2023-03-04T13:41:59.859Z,18.45
2023-03-04T13:44:35.536Z,17.52
2023-03-04T13:47:10.805Z,20.33
2023-03-04T13:49:39.941Z,22.60
2023-03-04T13:52:26.367Z,21.70
2023-03-04T13:55:14.535Z,21.05
2023-03-04T13:57:49.379Z,22.42
2023-03-04T14:02:45.693Z,20.33
2023-03-04T14:05:15.279Z,21.13
2023-03-04T14:07:43.373Z,18.40
2023-03-04T14:10:23.220Z,18.77
2023-03-04T14:12:52.814Z,18.50
2023-03-04T14:15:23.704Z,19.75
2023-03-04T14:17:53.828Z,19.67
2023-03-04T14:20:25.710Z,19.20
2023-03-04T14:22:54.145Z,19.60
2023-03-04T14:25:23.145Z,20.10
2023-03-04T14:27:52.048Z,20.30
2023-03-04T14:30:31.861Z,21.15
2023-03-04T14:33:08.571Z,21.30
2023-03-04T14:35:38.939Z,20.98
2023-03-04T14:38:08.288Z,21.02
2023-03-04T14:40:37.512Z,19.42
2023-03-04T14:43:06.841Z,21.52
2023-03-04T14:45:34.768Z,21.33
2023-03-04T14:48:06.028Z,20.63
2023-03-04T14:50:37.405Z,21.02
2023-03-04T14:53:14.508Z,20.75
2023-03-04T14:55:55.620Z,21.10
2023-03-04T14:58:26.873Z,20.75
2023-03-04T15:01:09.477Z,20.08
2023-03-04T15:03:37.422Z,19.60
2023-03-04T15:06:08.518Z,20.73
2023-03-04T15:08:38.910Z,20.90
2023-03-04T15:11:07.858Z,19.27
2023-03-04T15:13:39.491Z,19.08
2023-03-04T15:16:07.779Z,19.42
2023-03-04T15:18:36.226Z,19.95
2023-03-04T15:21:05.124Z,19.73
2023-03-04T15:23:33.633Z,19.25
2023-03-04T15:26:04.594Z,19.63
2023-03-04T15:28:34.690Z,19.70
2023-03-04T15:31:02.853Z,19.52
2023-03-04T15:33:30.895Z,18.70
2023-03-04T15:36:00.477Z,19.10
2023-03-04T15:38:29.183Z,17.38
2023-03-04T15:40:58.431Z,19.13
2023-03-04T15:43:27.762Z,17.52
2023-03-04T15:45:55.723Z,18.65
2023-03-04T15:48:23.539Z,19.33
2023-03-04T15:50:52.435Z,17.80
2023-03-04T15:53:23.463Z,19.70
2023-03-04T15:55:51.371Z,20.05
2023-03-04T15:58:19.368Z,19.25
2023-03-04T16:00:48.635Z,19.38
2023-03-04T16:03:17.232Z,19.70
2023-03-04T16:05:45.801Z,18.92
2023-03-04T16:08:14.601Z,18.55
2023-03-04T16:10:43.797Z,20.30
2023-03-04T16:13:14.181Z,21.00
2023-03-04T16:15:43.318Z,24.88
2023-03-04T16:18:13.381Z,19.25
2023-03-04T16:20:42.834Z,19.90
2023-03-04T16:23:13.640Z,20.20
2023-03-04T16:25:43.511Z,19.88
2023-03-04T16:28:11.913Z,20.73
2023-03-04T16:30:40.208Z,20.00
2023-03-04T16:33:07.913Z,19.90
2023-03-04T16:35:37.761Z,19.52
2023-03-04T16:38:06.253Z,20.00
2023-03-04T16:40:34.171Z,21.48
2023-03-04T16:43:01.968Z,20.95
2023-03-04T16:45:30.925Z,22.05
2023-03-04T16:47:58.946Z,21.17
2023-03-04T16:50:28.316Z,21.67
2023-03-04T16:52:57.761Z,21.38
2023-03-04T16:55:26.361Z,21.77
2023-03-04T16:57:54.707Z,24.55
2023-03-04T17:00:26.456Z,21.40
2023-03-04T17:02:55.342Z,20.55
2023-03-04T17:05:24.165Z,22.13
2023-03-04T17:07:51.989Z,24.02
2023-03-04T17:10:21.852Z,25.48
2023-03-04T17:12:49.994Z,21.52
2023-03-04T17:15:19.771Z,20.98
2023-03-04T17:17:47.640Z,24.15
2023-03-04T17:20:16.882Z,23.83
2023-03-04T17:22:44.934Z,23.20
2023-03-04T17:25:13.274Z,27.52
2023-03-04T17:27:42.316Z,37.53
2023-03-04T17:30:11.818Z,22.58
2023-03-04T17:32:40.133Z,24.23
2023-03-04T17:35:08.758Z,26.33
2023-03-04T17:37:36.577Z,23.85
2023-03-04T17:40:05.106Z,26.15
2023-03-04T17:42:32.848Z,23.60
2023-03-04T17:45:02.187Z,23.25
2023-03-04T17:47:30.389Z,22.35
2023-03-04T17:49:58.228Z,28.33
2023-03-04T17:52:26.097Z,37.10
2023-03-04T17:54:54.110Z,23.90
2023-03-04T17:57:22.526Z,22.20
2023-03-04T17:59:50.549Z,22.67
2023-03-04T18:02:19.642Z,24.33
2023-03-04T18:04:50.169Z,30.42
2023-03-04T18:07:18.129Z,22.88
2023-03-04T18:09:47.231Z,24.83
2023-03-04T18:12:15.048Z,34.50
2023-03-04T18:14:42.772Z,28.50
2023-03-04T18:17:10.579Z,32.35
2023-03-04T18:19:39.776Z,26.00
2023-03-04T18:22:07.499Z,26.77
2023-03-04T18:24:35.233Z,21.42
2023-03-04T18:27:03.171Z,22.98
2023-03-04T18:29:31.023Z,28.35
2023-03-04T18:31:58.902Z,23.25
2023-03-04T18:34:26.745Z,23.50
2023-03-04T18:36:56.049Z,21.30
2023-03-04T18:39:24.126Z,23.08
2023-03-04T18:41:51.985Z,21.75
2023-03-04T18:44:20.040Z,23.48
2023-03-04T18:46:48.727Z,28.50
2023-03-04T18:49:16.747Z,50.63
2023-03-04T18:51:44.601Z,40.15
2023-03-04T18:54:13.819Z,26.70
2023-03-04T18:56:43.704Z,25.15
2023-03-04T18:59:14.359Z,26.98
2023-03-04T19:01:42.538Z,27.95
2023-03-04T19:04:10.809Z,28.70
2023-03-04T19:06:38.814Z,28.00
2023-03-04T19:09:07.052Z,25.52
2023-03-04T19:11:36.269Z,28.27
2023-03-04T19:14:04.021Z,23.15
2023-03-04T19:16:31.996Z,24.50
2023-03-04T19:19:00.350Z,26.25
2023-03-04T19:21:28.377Z,24.83
2023-03-04T19:23:56.411Z,26.38
2023-03-04T19:26:24.297Z,28.10
2023-03-04T19:28:53.394Z,26.58
2023-03-04T19:31:21.262Z,26.55
2023-03-04T19:33:49.284Z,29.30
2023-03-04T19:36:17.119Z,27.60
2023-03-04T19:38:45.291Z,27.48
2023-03-04T19:41:14.380Z,26.88
2023-03-04T19:43:42.516Z,25.73
2023-03-04T19:46:12.647Z,28.60
2023-03-04T19:48:41.682Z,28.70
2023-03-04T19:51:14.860Z,28.25
2023-03-04T19:53:42.789Z,27.88
2023-03-04T19:56:10.887Z,32.30
2023-03-04T19:58:38.672Z,28.88
2023-03-04T20:01:06.645Z,29.75
2023-03-04T20:03:35.818Z,30.20
2023-03-04T20:06:04.713Z,28.17
2023-03-04T20:08:32.583Z,29.73
2023-03-04T20:11:00.380Z,30.40
2023-03-04T20:13:28.247Z,28.67
2023-03-04T20:15:56.186Z,28.35
2023-03-04T20:18:24.975Z,28.95
2023-03-04T20:20:56.671Z,32.92
2023-03-04T20:23:24.455Z,26.52
2023-03-04T20:25:53.492Z,27.83
2023-03-04T20:28:21.277Z,33.70
2023-03-04T20:30:49.153Z,29.38
2023-03-04T20:33:17.150Z,30.30
2023-03-04T20:35:45.425Z,29.65
2023-03-04T20:38:15.075Z,33.08
2023-03-04T20:40:44.302Z,28.92
2023-03-04T20:43:12.180Z,30.33
2023-03-04T20:45:39.952Z,29.25
2023-03-04T20:48:08.016Z,27.30
2023-03-04T20:50:36.548Z,30.02
2023-03-04T20:53:04.824Z,29.08
2023-03-04T20:55:34.003Z,30.23
2023-03-04T20:58:01.726Z,30.67
2023-03-04T21:00:30.800Z,29.50
2023-03-04T21:02:58.732Z,32.22
2023-03-04T21:05:26.919Z,30.52
2023-03-04T21:07:55.334Z,30.27
2023-03-04T21:10:23.457Z,31.25
2023-03-04T21:12:52.588Z,32.80
2023-03-04T21:15:20.615Z,31.88
2023-03-04T21:17:49.745Z,31.13
2023-03-04T21:20:17.799Z,29.77
2023-03-04T21:22:45.546Z,32.35
2023-03-04T21:25:13.408Z,31.02
2023-03-04T21:27:42.709Z,32.65
2023-03-04T21:30:12.856Z,31.63
2023-03-04T21:32:41.149Z,33.40
2023-03-04T21:35:13.775Z,32.63
2023-03-04T21:37:42.376Z,34.05
2023-03-04T21:40:10.867Z,33.22
2023-03-04T21:42:38.987Z,35.00
2023-03-04T21:45:07.976Z,34.50
2023-03-04T21:47:37.264Z,33.55
2023-03-04T21:50:05.351Z,35.72
2023-03-04T21:52:33.476Z,34.47
2023-03-04T21:55:01.288Z,34.03
2023-03-04T21:57:29.025Z,34.75
2023-03-04T21:59:56.706Z,35.45
2023-03-04T22:02:24.876Z,35.25
2023-03-04T22:04:54.800Z,35.65
2023-03-04T22:07:22.611Z,33.47
2023-03-04T22:09:50.895Z,36.30
2023-03-04T22:12:19.706Z,33.92
2023-03-04T22:14:47.938Z,35.60
2023-03-04T22:17:16.068Z,35.58
2023-03-04T22:19:45.241Z,38.08
2023-03-04T22:22:18.000Z,35.10
2023-03-04T22:24:48.443Z,37.17
2023-03-04T22:27:16.429Z,36.28
2023-03-04T22:29:44.720Z,34.97
2023-03-04T22:32:12.723Z,37.75
2023-03-04T22:34:40.597Z,37.28
2023-03-04T22:37:08.875Z,35.45
2023-03-04T22:39:37.974Z,37.47
2023-03-04T22:42:06.022Z,36.78
2023-03-04T22:44:34.428Z,37.92
2023-03-04T22:47:02.168Z,38.35
2023-03-04T22:49:29.888Z,36.70
2023-03-04T22:51:57.715Z,39.83
2023-03-04T22:54:27.248Z,37.85
2023-03-04T22:56:56.382Z,37.83
2023-03-04T22:59:24.050Z,39.97
2023-03-04T23:01:51.758Z,39.17
2023-03-04T23:04:19.522Z,40.15
2023-03-04T23:06:47.233Z,39.10
2023-03-04T23:09:15.294Z,39.83
2023-03-04T23:11:43.124Z,38.50
2023-03-04T23:14:12.226Z,38.88
2023-03-04T23:16:43.244Z,37.67
2023-03-04T23:19:12.281Z,38.03
2023-03-04T23:21:40.004Z,38.72
2023-03-04T23:24:08.642Z,40.03
2023-03-04T23:26:38.666Z,38.90
2023-03-04T23:29:07.442Z,38.47
2023-03-04T23:31:36.899Z,42.17
2023-03-04T23:34:06.990Z,39.47
2023-03-04T23:36:36.672Z,43.00
2023-03-04T23:39:05.086Z,40.05
2023-03-04T23:41:34.332Z,42.03
2023-03-04T23:44:02.128Z,41.88
2023-03-04T23:46:30.481Z,39.85
2023-03-04T23:49:00.055Z,40.95
2023-03-04T23:51:29.008Z,40.65
2023-03-04T23:53:57.105Z,41.70
2023-03-04T23:56:25.801Z,42.75
2023-03-04T23:58:53.552Z,40.38
